sensor_id;sensor_type;location;lat;lon;timestamp;P1;durP1;ratioP1;P2;durP2;ratioP2
17147;SDS011;8689;47.364;8.796;2024-01-15T00:01:21;4.27;;;3.87;;
17147;SDS011;8689;47.364;8.796;2024-01-15T00:03:48;5.77;;;4.27;;
17147;SDS011;8689;47.364;8.796;2024-01-15T00:06:17;5.47;;;4.23;;
17147;SDS011;8689;47.364;8.796;2024-01-15T00:08:44;8.27;;;4.80;;
17147;SDS011;8689;47.364;8.796;2024-01-15T00:11:11;4.93;;;4.43;;
17147;SDS011;8689;47.364;8.796;2024-01-15T00:13:38;5.70;;;4.40;;
17147;SDS011;8689;47.364;8.796;2024-01-15T00:16:05;4.60;;;4.03;;
17147;SDS011;8689;47.364;8.796;2024-01-15T00:18:32;6.70;;;4.73;;
17147;SDS011;8689;47.364;8.796;2024-01-15T00:21:00;8.70;;;4.60;;
17147;SDS011;8689;47.364;8.796;2024-01-15T00:23:29;7.43;;;5.10;;
17147;SDS011;8689;47.364;8.796;2024-01-15T00:25:58;5.47;;;4.43;;
17147;SDS011;8689;47.364;8.796;2024-01-15T00:28:25;6.20;;;4.73;;
17147;SDS011;8689;47.364;8.796;2024-01-15T00:30:52;5.80;;;4.47;;
17147;SDS011;8689;47.364;8.796;2024-01-15T00:33:20;6.73;;;4.40;;
17147;SDS011;8689;47.364;8.796;2024-01-15T00:35:47;5.90;;;4.77;;
17147;SDS011;8689;47.364;8.796;2024-01-15T00:38:15;6.07;;;4.83;;
17147;SDS011;8689;47.364;8.796;2024-01-15T00:40:44;5.33;;;4.60;;
17147;SDS011;8689;47.364;8.796;2024-01-15T00:43:11;5.80;;;4.27;;
17147;SDS011;8689;47.364;8.796;2024-01-15T00:45:38;6.57;;;4.67;;
17147;SDS011;8689;47.364;8.796;2024-01-15T00:48:06;6.53;;;5.00;;
17147;SDS011;8689;47.364;8.796;2024-01-15T00:50:33;5.97;;;4.60;;
17147;SDS011;8689;47.364;8.796;2024-01-15T00:53:00;7.03;;;4.43;;
17147;SDS011;8689;47.364;8.796;2024-01-15T00:55:28;5.87;;;4.87;;
17147;SDS011;8689;47.364;8.796;2024-01-15T00:57:57;5.40;;;4.90;;
17147;SDS011;8689;47.364;8.796;2024-01-15T01:00:25;8.17;;;4.60;;
17147;SDS011;8689;47.364;8.796;2024-01-15T01:02:52;8.27;;;5.43;;
17147;SDS011;8689;47.364;8.796;2024-01-15T01:05:20;6.17;;;5.03;;
17147;SDS011;8689;47.364;8.796;2024-01-15T01:07:47;6.93;;;5.13;;
17147;SDS011;8689;47.364;8.796;2024-01-15T01:10:14;6.90;;;4.80;;
17147;SDS011;8689;47.364;8.796;2024-01-15T01:12:42;7.37;;;5.20;;
17147;SDS011;8689;47.364;8.796;2024-01-15T01:15:11;6.77;;;5.37;;
17147;SDS011;8689;47.364;8.796;2024-01-15T01:17:38;6.50;;;5.43;;
17147;SDS011;8689;47.364;8.796;2024-01-15T01:20:06;7.00;;;5.70;;
17147;SDS011;8689;47.364;8.796;2024-01-15T01:22:35;5.70;;;4.93;;
17147;SDS011;8689;47.364;8.796;2024-01-15T01:25:03;7.10;;;5.67;;
17147;SDS011;8689;47.364;8.796;2024-01-15T01:27:31;5.37;;;4.40;;
17147;SDS011;8689;47.364;8.796;2024-01-15T01:29:58;6.50;;;5.47;;
17147;SDS011;8689;47.364;8.796;2024-01-15T01:32:27;6.53;;;5.80;;
17147;SDS011;8689;47.364;8.796;2024-01-15T01:34:55;6.47;;;5.40;;
17147;SDS011;8689;47.364;8.796;2024-01-15T01:37:23;8.67;;;5.90;;
17147;SDS011;8689;47.364;8.796;2024-01-15T01:39:50;7.73;;;6.20;;
17147;SDS011;8689;47.364;8.796;2024-01-15T01:42:17;8.47;;;5.87;;
17147;SDS011;8689;47.364;8.796;2024-01-15T01:44:45;6.67;;;5.43;;
17147;SDS011;8689;47.364;8.796;2024-01-15T01:47:13;7.43;;;5.30;;
17147;SDS011;8689;47.364;8.796;2024-01-15T01:49:43;11.57;;;8.40;;
17147;SDS011;8689;47.364;8.796;2024-01-15T01:52:12;15.10;;;8.97;;
17147;SDS011;8689;47.364;8.796;2024-01-15T01:54:41;14.23;;;8.40;;
17147;SDS011;8689;47.364;8.796;2024-01-15T01:57:08;20.33;;;10.63;;
17147;SDS011;8689;47.364;8.796;2024-01-15T01:59:37;22.20;;;11.73;;
17147;SDS011;8689;47.364;8.796;2024-01-15T02:02:05;17.93;;;11.13;;
17147;SDS011;8689;47.364;8.796;2024-01-15T02:04:32;23.67;;;12.07;;
17147;SDS011;8689;47.364;8.796;2024-01-15T02:07:03;19.23;;;11.83;;
17147;SDS011;8689;47.364;8.796;2024-01-15T02:09:30;18.00;;;11.53;;
17147;SDS011;8689;47.364;8.796;2024-01-15T02:11:58;22.70;;;13.40;;
17147;SDS011;8689;47.364;8.796;2024-01-15T02:14:25;19.23;;;12.33;;
17147;SDS011;8689;47.364;8.796;2024-01-15T02:16:52;24.43;;;13.03;;
17147;SDS011;8689;47.364;8.796;2024-01-15T02:19:20;22.43;;;12.50;;
17147;SDS011;8689;47.364;8.796;2024-01-15T02:21:48;20.60;;;11.33;;
17147;SDS011;8689;47.364;8.796;2024-01-15T02:24:18;21.07;;;11.83;;
17147;SDS011;8689;47.364;8.796;2024-01-15T02:26:45;17.93;;;11.73;;
17147;SDS011;8689;47.364;8.796;2024-01-15T02:29:14;19.93;;;12.30;;
17147;SDS011;8689;47.364;8.796;2024-01-15T02:31:42;18.83;;;11.70;;
17147;SDS011;8689;47.364;8.796;2024-01-15T02:34:09;19.97;;;11.70;;
17147;SDS011;8689;47.364;8.796;2024-01-15T02:36:36;21.27;;;12.57;;
17147;SDS011;8689;47.364;8.796;2024-01-15T02:39:03;22.13;;;12.03;;
17147;SDS011;8689;47.364;8.796;2024-01-15T02:41:33;15.73;;;10.23;;
17147;SDS011;8689;47.364;8.796;2024-01-15T02:44:00;15.90;;;11.20;;
17147;SDS011;8689;47.364;8.796;2024-01-15T02:46:27;18.43;;;11.40;;
17147;SDS011;8689;47.364;8.796;2024-01-15T02:48:55;17.40;;;11.37;;
17147;SDS011;8689;47.364;8.796;2024-01-15T02:51:22;19.73;;;10.73;;
17147;SDS011;8689;47.364;8.796;2024-01-15T02:53:49;22.03;;;13.37;;
17147;SDS011;8689;47.364;8.796;2024-01-15T02:56:18;22.03;;;12.83;;
17147;SDS011;8689;47.364;8.796;2024-01-15T02:58:46;20.13;;;11.33;;
17147;SDS011;8689;47.364;8.796;2024-01-15T03:01:13;23.33;;;12.90;;
17147;SDS011;8689;47.364;8.796;2024-01-15T03:03:40;22.93;;;11.93;;
17147;SDS011;8689;47.364;8.796;2024-01-15T03:06:08;22.23;;;12.70;;
17147;SDS011;8689;47.364;8.796;2024-01-15T03:08:36;20.70;;;12.93;;
17147;SDS011;8689;47.364;8.796;2024-01-15T03:11:03;24.97;;;11.90;;
17147;SDS011;8689;47.364;8.796;2024-01-15T03:13:31;24.57;;;13.07;;
17147;SDS011;8689;47.364;8.796;2024-01-15T03:16:03;26.40;;;13.47;;
17147;SDS011;8689;47.364;8.796;2024-01-15T03:18:31;24.73;;;13.40;;
17147;SDS011;8689;47.364;8.796;2024-01-15T03:20:58;20.87;;;12.90;;
17147;SDS011;8689;47.364;8.796;2024-01-15T03:23:26;23.27;;;13.00;;
17147;SDS011;8689;47.364;8.796;2024-01-15T03:25:53;23.03;;;12.97;;
17147;SDS011;8689;47.364;8.796;2024-01-15T03:28:20;22.17;;;12.93;;
17147;SDS011;8689;47.364;8.796;2024-01-15T03:30:48;28.10;;;15.33;;
17147;SDS011;8689;47.364;8.796;2024-01-15T03:33:17;24.30;;;13.33;;
17147;SDS011;8689;47.364;8.796;2024-01-15T03:35:44;26.47;;;13.17;;
17147;SDS011;8689;47.364;8.796;2024-01-15T03:38:11;21.20;;;12.27;;
17147;SDS011;8689;47.364;8.796;2024-01-15T03:40:38;27.30;;;14.37;;
17147;SDS011;8689;47.364;8.796;2024-01-15T03:43:05;26.43;;;13.13;;
17147;SDS011;8689;47.364;8.796;2024-01-15T03:45:32;27.50;;;14.13;;
17147;SDS011;8689;47.364;8.796;2024-01-15T03:48:00;19.53;;;12.87;;
17147;SDS011;8689;47.364;8.796;2024-01-15T03:50:28;25.67;;;13.77;;
17147;SDS011;8689;47.364;8.796;2024-01-15T03:52:56;28.80;;;12.93;;
17147;SDS011;8689;47.364;8.796;2024-01-15T03:55:23;27.43;;;13.40;;
17147;SDS011;8689;47.364;8.796;2024-01-15T03:57:50;21.20;;;13.33;;
17147;SDS011;8689;47.364;8.796;2024-01-15T04:00:18;23.70;;;15.03;;
17147;SDS011;8689;47.364;8.796;2024-01-15T04:02:45;21.37;;;13.37;;
17147;SDS011;8689;47.364;8.796;2024-01-15T04:05:13;26.23;;;13.50;;
17147;SDS011;8689;47.364;8.796;2024-01-15T04:07:41;27.00;;;12.93;;
17147;SDS011;8689;47.364;8.796;2024-01-15T04:10:09;19.67;;;12.37;;
17147;SDS011;8689;47.364;8.796;2024-01-15T04:12:36;26.17;;;14.27;;
17147;SDS011;8689;47.364;8.796;2024-01-15T04:15:03;22.67;;;13.13;;
17147;SDS011;8689;47.364;8.796;2024-01-15T04:17:31;21.73;;;13.93;;
17147;SDS011;8689;47.364;8.796;2024-01-15T04:19:58;25.30;;;13.23;;
17147;SDS011;8689;47.364;8.796;2024-01-15T04:22:26;22.47;;;13.90;;
17147;SDS011;8689;47.364;8.796;2024-01-15T04:25:07;21.37;;;13.00;;
17147;SDS011;8689;47.364;8.796;2024-01-15T04:28:20;22.97;;;13.67;;
17147;SDS011;8689;47.364;8.796;2024-01-15T04:31:22;18.23;;;11.97;;
17147;SDS011;8689;47.364;8.796;2024-01-15T04:34:11;23.60;;;12.70;;
17147;SDS011;8689;47.364;8.796;2024-01-15T04:36:39;21.17;;;11.73;;
17147;SDS011;8689;47.364;8.796;2024-01-15T04:39:06;18.93;;;12.10;;
17147;SDS011;8689;47.364;8.796;2024-01-15T04:41:37;21.33;;;12.60;;
17147;SDS011;8689;47.364;8.796;2024-01-15T04:44:04;18.03;;;12.07;;
17147;SDS011;8689;47.364;8.796;2024-01-15T04:46:31;20.20;;;13.10;;
17147;SDS011;8689;47.364;8.796;2024-01-15T04:48:59;19.90;;;12.77;;
17147;SDS011;8689;47.364;8.796;2024-01-15T04:51:27;24.83;;;13.20;;
17147;SDS011;8689;47.364;8.796;2024-01-15T04:53:54;19.43;;;12.27;;
17147;SDS011;8689;47.364;8.796;2024-01-15T04:56:22;21.87;;;13.47;;
17147;SDS011;8689;47.364;8.796;2024-01-15T04:58:50;19.57;;;12.87;;
17147;SDS011;8689;47.364;8.796;2024-01-15T05:01:17;22.63;;;13.03;;
17147;SDS011;8689;47.364;8.796;2024-01-15T05:03:45;22.80;;;14.87;;
17147;SDS011;8689;47.364;8.796;2024-01-15T05:06:12;24.20;;;13.47;;
17147;SDS011;8689;47.364;8.796;2024-01-15T05:08:40;22.90;;;14.27;;
17147;SDS011;8689;47.364;8.796;2024-01-15T05:11:09;21.10;;;12.63;;
17147;SDS011;8689;47.364;8.796;2024-01-15T05:13:37;19.27;;;12.07;;
17147;SDS011;8689;47.364;8.796;2024-01-15T05:16:06;20.17;;;13.80;;
17147;SDS011;8689;47.364;8.796;2024-01-15T05:18:34;17.73;;;12.27;;
17147;SDS011;8689;47.364;8.796;2024-01-15T05:21:02;25.87;;;14.07;;
17147;SDS011;8689;47.364;8.796;2024-01-15T05:23:30;19.47;;;13.27;;
17147;SDS011;8689;47.364;8.796;2024-01-15T05:25:58;20.67;;;13.33;;
17147;SDS011;8689;47.364;8.796;2024-01-15T05:28:41;19.47;;;13.47;;
17147;SDS011;8689;47.364;8.796;2024-01-15T05:31:10;22.40;;;14.07;;
17147;SDS011;8689;47.364;8.796;2024-01-15T05:33:49;23.37;;;13.57;;
17147;SDS011;8689;47.364;8.796;2024-01-15T05:36:33;23.17;;;13.80;;
17147;SDS011;8689;47.364;8.796;2024-01-15T05:39:01;19.00;;;13.13;;
17147;SDS011;8689;47.364;8.796;2024-01-15T05:57:54;19.47;;;13.60;;
17147;SDS011;8689;47.364;8.796;2024-01-15T06:00:22;20.87;;;13.40;;
17147;SDS011;8689;47.364;8.796;2024-01-15T06:02:49;18.03;;;12.10;;
17147;SDS011;8689;47.364;8.796;2024-01-15T06:05:17;21.67;;;13.10;;
17147;SDS011;8689;47.364;8.796;2024-01-15T06:07:46;16.87;;;12.13;;
17147;SDS011;8689;47.364;8.796;2024-01-15T06:10:13;18.77;;;12.67;;
17147;SDS011;8689;47.364;8.796;2024-01-15T06:12:58;17.47;;;12.07;;
17147;SDS011;8689;47.364;8.796;2024-01-15T06:15:36;20.40;;;12.33;;
17147;SDS011;8689;47.364;8.796;2024-01-15T06:18:24;20.13;;;12.73;;
17147;SDS011;8689;47.364;8.796;2024-01-15T06:20:51;18.10;;;12.07;;
17147;SDS011;8689;47.364;8.796;2024-01-15T06:23:19;18.83;;;12.83;;
17147;SDS011;8689;47.364;8.796;2024-01-15T06:25:46;20.47;;;12.50;;
17147;SDS011;8689;47.364;8.796;2024-01-15T06:28:15;20.47;;;12.77;;
17147;SDS011;8689;47.364;8.796;2024-01-15T06:30:42;18.10;;;12.37;;
17147;SDS011;8689;47.364;8.796;2024-01-15T06:33:09;20.30;;;12.40;;
17147;SDS011;8689;47.364;8.796;2024-01-15T06:35:37;17.43;;;12.03;;
17147;SDS011;8689;47.364;8.796;2024-01-15T06:38:05;17.67;;;11.63;;
17147;SDS011;8689;47.364;8.796;2024-01-15T06:40:32;18.53;;;11.60;;
17147;SDS011;8689;47.364;8.796;2024-01-15T06:42:59;20.83;;;12.77;;
17147;SDS011;8689;47.364;8.796;2024-01-15T06:45:28;20.60;;;12.60;;
17147;SDS011;8689;47.364;8.796;2024-01-15T06:47:56;19.57;;;12.10;;
17147;SDS011;8689;47.364;8.796;2024-01-15T06:50:23;18.30;;;12.73;;
17147;SDS011;8689;47.364;8.796;2024-01-15T06:52:51;20.20;;;13.63;;
17147;SDS011;8689;47.364;8.796;2024-01-15T06:55:20;18.87;;;11.70;;
17147;SDS011;8689;47.364;8.796;2024-01-15T06:57:50;17.40;;;10.80;;
17147;SDS011;8689;47.364;8.796;2024-01-15T07:00:34;16.47;;;11.23;;
17147;SDS011;8689;47.364;8.796;2024-01-15T07:03:02;17.07;;;11.70;;
17147;SDS011;8689;47.364;8.796;2024-01-15T07:05:30;17.13;;;11.67;;
17147;SDS011;8689;47.364;8.796;2024-01-15T07:07:57;22.23;;;13.53;;
17147;SDS011;8689;47.364;8.796;2024-01-15T07:10:25;17.73;;;12.20;;
17147;SDS011;8689;47.364;8.796;2024-01-15T07:12:53;14.73;;;11.17;;
17147;SDS011;8689;47.364;8.796;2024-01-15T07:15:21;19.77;;;12.37;;
17147;SDS011;8689;47.364;8.796;2024-01-15T07:17:51;18.63;;;13.83;;
17147;SDS011;8689;47.364;8.796;2024-01-15T07:20:18;17.53;;;11.10;;
17147;SDS011;8689;47.364;8.796;2024-01-15T07:23:01;19.13;;;12.17;;
17147;SDS011;8689;47.364;8.796;2024-01-15T07:25:29;14.87;;;11.70;;
17147;SDS011;8689;47.364;8.796;2024-01-15T07:27:56;15.50;;;11.60;;
17147;SDS011;8689;47.364;8.796;2024-01-15T07:30:25;17.37;;;12.33;;
17147;SDS011;8689;47.364;8.796;2024-01-15T07:32:54;16.23;;;11.70;;
17147;SDS011;8689;47.364;8.796;2024-01-15T07:35:21;20.87;;;13.77;;
17147;SDS011;8689;47.364;8.796;2024-01-15T07:37:49;18.47;;;12.17;;
17147;SDS011;8689;47.364;8.796;2024-01-15T07:40:17;18.17;;;12.47;;
17147;SDS011;8689;47.364;8.796;2024-01-15T07:42:45;18.97;;;11.97;;
17147;SDS011;8689;47.364;8.796;2024-01-15T07:45:14;15.90;;;11.40;;
17147;SDS011;8689;47.364;8.796;2024-01-15T07:47:42;16.73;;;12.50;;
17147;SDS011;8689;47.364;8.796;2024-01-15T07:50:11;17.13;;;12.13;;
17147;SDS011;8689;47.364;8.796;2024-01-15T07:52:41;18.10;;;11.77;;
17147;SDS011;8689;47.364;8.796;2024-01-15T07:55:12;15.23;;;10.30;;
17147;SDS011;8689;47.364;8.796;2024-01-15T07:57:44;17.10;;;11.97;;
17147;SDS011;8689;47.364;8.796;2024-01-15T08:00:21;15.80;;;11.53;;
17147;SDS011;8689;47.364;8.796;2024-01-15T12:01:20;8.37;;;6.53;;
17147;SDS011;8689;47.364;8.796;2024-01-15T12:03:48;11.00;;;8.10;;
17147;SDS011;8689;47.364;8.796;2024-01-15T12:06:15;13.23;;;8.77;;
17147;SDS011;8689;47.364;8.796;2024-01-15T12:09:02;14.67;;;7.80;;
17147;SDS011;8689;47.364;8.796;2024-01-15T12:18:28;11.53;;;9.63;;
17147;SDS011;8689;47.364;8.796;2024-01-15T12:21:04;10.87;;;8.57;;
17147;SDS011;8689;47.364;8.796;2024-01-15T12:23:34;13.57;;;8.87;;
17147;SDS011;8689;47.364;8.796;2024-01-15T12:26:06;11.13;;;9.50;;
17147;SDS011;8689;47.364;8.796;2024-01-15T12:28:34;11.80;;;10.63;;
17147;SDS011;8689;47.364;8.796;2024-01-15T12:31:07;11.23;;;10.03;;
17147;SDS011;8689;47.364;8.796;2024-01-15T12:36:54;10.43;;;9.43;;
17147;SDS011;8689;47.364;8.796;2024-01-15T12:39:37;12.40;;;10.10;;
17147;SDS011;8689;47.364;8.796;2024-01-15T12:46:00;11.87;;;9.97;;
17147;SDS011;8689;47.364;8.796;2024-01-15T12:49:00;14.83;;;9.53;;
17147;SDS011;8689;47.364;8.796;2024-01-15T12:57:47;14.37;;;11.17;;
17147;SDS011;8689;47.364;8.796;2024-01-15T13:03:57;14.53;;;10.97;;
17147;SDS011;8689;47.364;8.796;2024-01-15T13:06:25;12.50;;;9.53;;
17147;SDS011;8689;47.364;8.796;2024-01-15T13:08:54;12.70;;;11.00;;
17147;SDS011;8689;47.364;8.796;2024-01-15T13:12:19;14.57;;;13.20;;
17147;SDS011;8689;47.364;8.796;2024-01-15T13:14:48;12.27;;;10.23;;
17147;SDS011;8689;47.364;8.796;2024-01-15T13:21:24;11.93;;;10.60;;
17147;SDS011;8689;47.364;8.796;2024-01-15T13:23:57;10.23;;;9.20;;
17147;SDS011;8689;47.364;8.796;2024-01-15T13:26:25;11.53;;;10.50;;
17147;SDS011;8689;47.364;8.796;2024-01-15T13:28:53;11.50;;;10.30;;
17147;SDS011;8689;47.364;8.796;2024-01-15T13:31:25;14.57;;;10.03;;
17147;SDS011;8689;47.364;8.796;2024-01-15T13:33:53;11.27;;;10.27;;
17147;SDS011;8689;47.364;8.796;2024-01-15T13:36:21;14.00;;;10.63;;
17147;SDS011;8689;47.364;8.796;2024-01-15T13:38:48;11.27;;;10.07;;
17147;SDS011;8689;47.364;8.796;2024-01-15T13:41:17;16.47;;;10.23;;
17147;SDS011;8689;47.364;8.796;2024-01-15T13:43:48;15.03;;;9.67;;
17147;SDS011;8689;47.364;8.796;2024-01-15T13:46:18;10.83;;;9.70;;
17147;SDS011;8689;47.364;8.796;2024-01-15T13:48:45;10.77;;;9.53;;
17147;SDS011;8689;47.364;8.796;2024-01-15T13:51:15;14.00;;;10.60;;
17147;SDS011;8689;47.364;8.796;2024-01-15T13:53:43;11.73;;;10.70;;
17147;SDS011;8689;47.364;8.796;2024-01-15T13:56:10;11.00;;;9.57;;
17147;SDS011;8689;47.364;8.796;2024-01-15T13:58:39;12.60;;;10.10;;
17147;SDS011;8689;47.364;8.796;2024-01-15T14:01:06;12.43;;;10.47;;
17147;SDS011;8689;47.364;8.796;2024-01-15T14:03:33;11.87;;;10.53;;
17147;SDS011;8689;47.364;8.796;2024-01-15T14:06:04;11.53;;;9.80;;
